createdAt,value
2019-04-14T00:00:55.460Z,49.37
2019-04-14T00:04:03.283Z,49.57
2019-04-14T00:06:52.595Z,47.53
2019-04-14T00:09:43.164Z,51.87
2019-04-14T00:12:33.759Z,46.73
2019-04-14T00:15:31.040Z,47.43
2019-04-14T00:18:14.375Z,50.53
2019-04-14T00:21:04.392Z,49.77
2019-04-14T00:23:54.449Z,48.10
2019-04-14T00:26:44.497Z,44.30
2019-04-14T00:29:35.100Z,44.53
2019-04-14T00:35:43.483Z,44.97
2019-04-14T00:44:37.173Z,47.77
2019-04-14T00:50:21.534Z,47.83
2019-04-14T00:53:10.395Z,47.50
2019-04-14T00:56:19.455Z,43.67
2019-04-14T00:59:09.285Z,45.33
2019-04-14T01:01:59.249Z,40.50
2019-04-14T01:04:49.143Z,44.03
2019-04-14T01:07:39.171Z,44.60
2019-04-14T01:10:27.947Z,44.80
2019-04-14T01:13:17.789Z,42.55
2019-04-14T01:16:14.997Z,45.93
2019-04-14T01:18:58.089Z,48.83
2019-04-14T01:21:48.398Z,41.63
2019-04-14T01:24:38.143Z,43.97
2019-04-14T01:27:27.844Z,49.43
2019-04-14T01:30:18.235Z,46.60
2019-04-14T01:33:07.619Z,42.63
2019-04-14T01:35:57.539Z,39.00
2019-04-14T01:38:47.106Z,44.17
2019-04-14T01:41:36.853Z,41.17
2019-04-14T01:44:26.408Z,61.73
2019-04-14T01:47:09.492Z,42.93
2019-04-14T01:49:59.409Z,41.70
2019-04-14T01:56:17.203Z,42.67
2019-04-14T02:05:15.302Z,43.77
2019-04-14T02:08:04.471Z,43.43
2019-04-14T02:10:54.615Z,43.13
2019-04-14T02:13:44.263Z,45.83
2019-04-14T02:16:40.335Z,47.00
2019-04-14T02:19:24.439Z,48.33
2019-04-14T02:22:13.833Z,45.37
2019-04-14T02:25:03.568Z,42.87
2019-04-14T02:27:53.670Z,45.28
2019-04-14T02:30:53.637Z,41.70
2019-04-14T02:34:07.529Z,44.40
2019-04-14T02:36:58.341Z,43.23
2019-04-14T02:39:45.946Z,47.90
2019-04-14T02:45:19.327Z,47.53
2019-04-14T02:48:15.196Z,41.60
2019-04-14T02:54:10.048Z,47.10
2019-04-14T02:56:52.151Z,45.17
2019-04-14T03:05:22.304Z,48.80
2019-04-14T03:08:16.425Z,49.87
2019-04-14T03:11:01.246Z,44.10
2019-04-14T03:13:51.383Z,41.07
2019-04-14T03:17:14.334Z,43.20
2019-04-14T03:26:06.677Z,45.83
2019-04-14T03:29:16.997Z,42.15
2019-04-14T03:32:31.922Z,41.13
2019-04-14T03:35:03.886Z,56.75
2019-04-14T03:43:33.884Z,45.07
2019-04-14T03:46:19.372Z,47.30
2019-04-14T03:49:08.148Z,44.77
2019-04-14T03:51:57.721Z,49.50
2019-04-14T03:54:40.477Z,42.47
2019-04-14T03:57:10.445Z,42.93
2019-04-14T04:00:00.721Z,43.13
2019-04-14T04:02:51.179Z,42.60
2019-04-14T04:05:41.383Z,47.80
2019-04-14T04:08:31.263Z,41.73
2019-04-14T04:11:21.472Z,43.77
2019-04-14T04:14:11.767Z,36.83
2019-04-14T04:20:30.643Z,44.57
2019-04-14T04:23:38.565Z,42.90
2019-04-14T04:26:47.227Z,45.90
2019-04-14T04:29:57.016Z,47.23
2019-04-14T04:33:06.590Z,48.07
2019-04-14T04:36:16.024Z,41.60
2019-04-14T04:39:45.590Z,44.40
2019-04-14T04:45:29.882Z,47.53
2019-04-14T04:48:13.175Z,48.80
2019-04-14T04:51:02.970Z,45.47
2019-04-14T04:53:52.767Z,42.60
2019-04-14T04:56:42.643Z,43.83
2019-04-14T04:59:32.171Z,49.63
2019-04-14T05:02:22.574Z,43.83
2019-04-14T05:05:50.095Z,50.57
2019-04-14T05:08:59.157Z,42.93
2019-04-14T05:12:06.966Z,39.87
2019-04-14T05:15:14.782Z,42.13
2019-04-14T05:18:04.858Z,41.90
2019-04-14T05:20:55.231Z,40.33
2019-04-14T05:23:45.348Z,42.40
2019-04-14T05:26:35.195Z,43.70
2019-04-14T05:29:23.982Z,42.10
2019-04-14T05:32:32.637Z,50.13
2019-04-14T05:35:22.771Z,40.80
2019-04-14T05:38:13.132Z,45.73
2019-04-14T05:41:02.739Z,41.40
2019-04-14T05:43:57.064Z,45.60
2019-04-14T05:46:36.013Z,43.47
2019-04-14T05:49:33.949Z,45.10
2019-04-14T05:52:16.336Z,47.73
2019-04-14T05:55:26.812Z,42.63
2019-04-14T05:58:16.402Z,47.88
2019-04-14T06:01:06.918Z,38.60
2019-04-14T06:03:56.704Z,42.20
2019-04-14T06:06:45.493Z,43.30
2019-04-14T06:09:34.304Z,44.13
2019-04-14T06:12:23.103Z,45.00
2019-04-14T06:15:11.975Z,47.23
2019-04-14T06:18:01.074Z,47.60
2019-04-14T06:20:49.876Z,46.50
2019-04-14T06:23:38.670Z,45.60
2019-04-14T06:26:27.475Z,47.87
2019-04-14T06:29:16.262Z,55.50
2019-04-14T06:35:20.032Z,43.70
2019-04-14T06:38:27.860Z,40.47
2019-04-14T06:44:26.061Z,52.53
2019-04-14T06:47:05.823Z,38.93
2019-04-14T06:49:54.612Z,39.60
2019-04-14T06:52:43.412Z,40.30
2019-04-14T06:55:32.198Z,39.10
2019-04-14T06:58:21.016Z,37.08
2019-04-14T07:01:09.832Z,37.30
2019-04-14T07:03:58.633Z,35.70
2019-04-14T07:06:47.440Z,36.87
2019-04-14T07:09:36.255Z,36.57
2019-04-14T07:12:25.053Z,31.43
2019-04-14T07:15:13.856Z,34.97
2019-04-14T07:21:17.185Z,31.00
2019-04-14T07:24:05.967Z,31.00
2019-04-14T07:27:13.863Z,35.13
2019-04-14T07:30:21.679Z,30.63
2019-04-14T07:33:29.545Z,31.27
2019-04-14T07:36:37.423Z,31.90
2019-04-14T07:39:45.250Z,34.95
2019-04-14T07:46:02.463Z,34.33
2019-04-14T07:48:45.803Z,31.83
2019-04-14T07:51:53.640Z,31.00
2019-04-14T07:55:01.470Z,27.50
2019-04-14T08:04:07.499Z,29.57
2019-04-14T08:10:26.592Z,21.97
2019-04-14T08:13:15.388Z,24.63
2019-04-14T08:19:19.710Z,27.33
2019-04-14T08:22:08.492Z,25.00
2019-04-14T08:24:57.287Z,26.10
2019-04-14T08:30:53.823Z,29.93
2019-04-14T08:33:42.622Z,24.90
2019-04-14T08:36:33.330Z,27.23
2019-04-14T08:39:21.941Z,24.60
2019-04-14T08:42:29.769Z,26.50
2019-04-14T08:45:37.580Z,21.00
2019-04-14T08:48:22.919Z,23.60
2019-04-14T08:54:40.124Z,29.93
2019-04-14T09:00:43.387Z,19.10
2019-04-14T09:03:51.507Z,22.97
2019-04-14T09:10:08.680Z,21.77
2019-04-14T09:13:16.489Z,22.87
2019-04-14T09:16:05.360Z,22.70
2019-04-14T09:18:54.149Z,26.53
2019-04-14T09:21:42.948Z,20.97
2019-04-14T09:24:31.748Z,44.43
2019-04-14T09:27:20.552Z,21.67
2019-04-14T09:33:18.922Z,21.13
2019-04-14T09:36:07.702Z,19.33
2019-04-14T09:38:56.647Z,20.17
2019-04-14T09:41:45.435Z,18.37
2019-04-14T09:44:53.258Z,32.13
2019-04-14T09:47:42.063Z,24.40
2019-04-14T09:50:30.862Z,24.90
2019-04-14T09:53:19.734Z,20.75
2019-04-14T09:56:08.537Z,22.70
2019-04-14T09:58:57.350Z,22.70
2019-04-14T10:01:46.147Z,18.17
2019-04-14T10:04:34.958Z,34.55
2019-04-14T10:07:23.758Z,21.70
2019-04-14T10:10:12.737Z,21.73
2019-04-14T10:13:01.521Z,18.87
2019-04-14T10:15:50.341Z,21.37
2019-04-14T10:21:46.886Z,19.30
2019-04-14T10:24:35.694Z,23.10
2019-04-14T10:27:24.484Z,23.73
2019-04-14T10:30:13.355Z,24.57
2019-04-14T10:33:02.151Z,24.30
2019-04-14T10:35:50.961Z,24.03
2019-04-14T10:38:39.770Z,23.07
2019-04-14T10:41:28.573Z,22.67
2019-04-14T10:44:17.373Z,23.50
2019-04-14T10:47:06.204Z,25.90
2019-04-14T10:49:54.975Z,27.07
2019-04-14T10:52:43.786Z,16.67
2019-04-14T10:55:32.603Z,23.83
2019-04-14T10:58:21.468Z,21.60
2019-04-14T11:01:10.255Z,26.63
2019-04-14T11:03:59.072Z,19.50
2019-04-14T11:07:06.885Z,24.70
2019-04-14T11:09:55.693Z,22.07
2019-04-14T11:12:44.483Z,24.47
2019-04-14T11:15:33.298Z,23.33
2019-04-14T11:18:22.102Z,25.23
2019-04-14T11:21:10.889Z,25.50
2019-04-14T11:23:59.696Z,24.30
2019-04-14T11:26:48.505Z,27.00
2019-04-14T11:29:30.485Z,20.63
2019-04-14T11:32:38.321Z,20.80
2019-04-14T11:35:46.146Z,24.33
2019-04-14T11:41:30.788Z,25.17
2019-04-14T11:44:19.668Z,24.33
2019-04-14T11:46:49.148Z,28.10
2019-04-14T11:49:38.023Z,24.50
2019-04-14T11:52:26.810Z,27.40
2019-04-14T11:55:15.617Z,18.40
2019-04-14T11:58:04.426Z,22.90
2019-04-14T12:04:08.131Z,22.33
2019-04-14T12:07:16.041Z,25.23
2019-04-14T12:13:34.224Z,19.57
2019-04-14T12:16:23.015Z,25.67
2019-04-14T12:19:11.826Z,27.53
2019-04-14T12:22:08.306Z,22.63
2019-04-14T12:24:51.208Z,21.90
2019-04-14T12:27:40.007Z,23.43
2019-04-14T12:30:22.417Z,25.03
2019-04-14T12:33:11.187Z,19.77
2019-04-14T12:35:59.991Z,25.80
2019-04-14T12:38:48.788Z,22.80
2019-04-14T12:44:52.215Z,39.43
2019-04-14T12:48:00.055Z,30.90
2019-04-14T12:53:58.238Z,24.50
2019-04-14T12:56:47.039Z,29.53
2019-04-14T13:05:34.372Z,29.13
2019-04-14T13:08:23.201Z,22.57
2019-04-14T13:11:11.984Z,27.93
2019-04-14T13:13:41.455Z,28.97
2019-04-14T13:16:30.245Z,29.80
2019-04-14T13:19:19.047Z,23.37
2019-04-14T13:22:07.906Z,25.23
2019-04-14T13:24:56.703Z,24.67
2019-04-14T13:27:45.567Z,26.57
2019-04-14T13:30:28.596Z,27.73
2019-04-14T13:33:17.385Z,24.63
2019-04-14T13:36:06.256Z,24.40
2019-04-14T13:38:55.068Z,19.90
2019-04-14T13:41:43.863Z,21.50
2019-04-14T13:44:32.672Z,41.40
2019-04-14T13:47:21.477Z,24.13
2019-04-14T13:50:10.327Z,26.40
2019-04-14T13:52:59.137Z,23.83
2019-04-14T13:55:47.940Z,28.07
2019-04-14T13:58:39.161Z,25.83
2019-04-14T14:01:27.263Z,23.87
2019-04-14T14:03:56.712Z,28.07
2019-04-14T14:06:45.518Z,25.53
2019-04-14T14:09:34.309Z,30.57
2019-04-14T14:15:37.570Z,30.37
2019-04-14T14:18:45.383Z,30.80
2019-04-14T14:24:52.428Z,52.00
2019-04-14T14:27:33.786Z,31.27
2019-04-14T14:30:17.368Z,28.83
2019-04-14T14:33:06.174Z,26.77
2019-04-14T14:35:54.959Z,32.97
2019-04-14T14:38:43.763Z,29.57
2019-04-14T14:41:32.556Z,33.70
2019-04-14T14:47:36.155Z,30.27
2019-04-14T14:53:24.741Z,26.07
2019-04-14T14:56:13.554Z,24.70
2019-04-14T14:59:02.349Z,30.23
2019-04-14T15:01:51.154Z,25.57
2019-04-14T15:04:40.046Z,25.20
2019-04-14T15:07:28.852Z,28.13
2019-04-14T15:10:17.642Z,29.03
2019-04-14T15:13:06.687Z,24.97
2019-04-14T15:15:55.532Z,23.70
2019-04-14T15:18:44.341Z,27.60
2019-04-14T15:21:33.132Z,31.30
2019-04-14T15:24:21.934Z,34.37
2019-04-14T15:27:10.857Z,25.20
2019-04-14T15:29:52.260Z,23.07
2019-04-14T15:32:41.061Z,25.70
2019-04-14T15:35:37.458Z,25.00
2019-04-14T15:38:26.260Z,23.10
2019-04-14T15:44:29.566Z,32.40
2019-04-14T15:47:18.348Z,30.97
2019-04-14T15:50:07.588Z,19.27
2019-04-14T15:52:56.374Z,22.23
2019-04-14T15:59:03.465Z,25.40
2019-04-14T16:02:11.314Z,23.63
2019-04-14T16:05:19.134Z,24.10
2019-04-14T16:08:26.970Z,21.87
2019-04-14T16:14:24.919Z,36.63
2019-04-14T16:17:32.732Z,24.83
2019-04-14T16:23:17.505Z,22.17
2019-04-14T16:26:25.337Z,23.40
2019-04-14T16:29:33.154Z,23.57
2019-04-14T16:38:20.754Z,20.50
2019-04-14T16:41:09.554Z,16.97
2019-04-14T16:43:58.377Z,19.60
2019-04-14T16:46:47.322Z,15.90
2019-04-14T16:49:36.133Z,17.52
2019-04-14T17:04:32.077Z,26.60
2019-04-14T17:07:20.860Z,13.10
2019-04-14T17:10:09.837Z,12.10
2019-04-14T17:12:58.618Z,14.07
2019-04-14T17:16:06.447Z,11.97
2019-04-14T17:19:14.252Z,13.30
2019-04-14T17:22:22.080Z,14.27
2019-04-14T17:28:39.362Z,13.67
2019-04-14T17:31:24.596Z,15.17
2019-04-14T17:34:15.015Z,10.80
2019-04-14T17:37:22.852Z,11.57
2019-04-14T17:52:34.602Z,13.60
2019-04-14T17:55:23.244Z,13.10
2019-04-14T17:58:31.187Z,16.60
2019-04-14T18:01:38.983Z,11.90
2019-04-14T18:04:46.948Z,22.30
2019-04-14T18:11:04.156Z,18.80
2019-04-14T18:14:11.969Z,10.83
2019-04-14T18:17:19.825Z,13.23
2019-04-14T18:23:18.185Z,17.00
2019-04-14T18:29:35.387Z,17.33
2019-04-14T18:32:16.999Z,9.17
2019-04-14T18:35:25.202Z,10.30
2019-04-14T18:38:33.014Z,12.47
2019-04-14T18:41:40.846Z,12.10
2019-04-14T18:44:48.684Z,24.97
2019-04-14T18:47:56.514Z,13.50
2019-04-14T18:51:04.322Z,12.20
2019-04-14T18:57:08.548Z,15.30
2019-04-14T19:02:53.205Z,13.30
2019-04-14T19:05:42.002Z,8.10
2019-04-14T19:08:30.815Z,10.93
2019-04-14T19:11:38.686Z,17.23
2019-04-14T19:14:46.609Z,22.37
2019-04-14T19:17:54.471Z,8.80
2019-04-14T19:23:52.779Z,10.50
2019-04-14T19:26:41.909Z,8.80
2019-04-14T19:29:30.702Z,10.47
2019-04-14T19:32:12.560Z,10.17
2019-04-14T19:35:01.369Z,10.10
2019-04-14T19:37:50.160Z,12.43
2019-04-14T19:40:38.958Z,13.77
2019-04-14T19:43:27.744Z,12.17
2019-04-14T19:46:35.595Z,10.00
2019-04-14T19:49:24.400Z,12.00
2019-04-14T19:52:13.191Z,11.83
2019-04-14T19:55:01.994Z,19.80
2019-04-14T19:57:50.776Z,13.00
2019-04-14T20:00:39.580Z,10.90
2019-04-14T20:03:28.370Z,13.55
2019-04-14T20:06:17.174Z,11.60
2019-04-14T20:09:26.873Z,15.87
2019-04-14T20:12:34.939Z,16.60
2019-04-14T20:18:52.150Z,17.60
2019-04-14T20:22:00.025Z,18.77
2019-04-14T20:25:07.850Z,13.17
2019-04-14T20:28:15.656Z,14.07
2019-04-14T20:36:59.135Z,12.77
2019-04-14T20:39:47.917Z,11.37
2019-04-14T20:42:36.800Z,18.67
2019-04-14T20:45:25.579Z,16.37
2019-04-14T20:48:14.377Z,24.20
2019-04-14T20:51:03.164Z,21.13
2019-04-14T20:53:52.015Z,18.53
2019-04-14T20:56:40.780Z,21.30
2019-04-14T20:59:29.596Z,16.57
2019-04-14T21:08:42.266Z,17.20
2019-04-14T21:14:59.468Z,17.95
2019-04-14T21:18:07.284Z,20.83
2019-04-14T21:21:15.128Z,18.20
2019-04-14T21:27:32.428Z,17.03
2019-04-14T21:30:40.367Z,21.03
2019-04-14T21:33:40.633Z,19.47
2019-04-14T21:36:48.462Z,18.37
2019-04-14T21:42:32.799Z,22.13
2019-04-14T21:45:40.619Z,27.57
2019-04-14T21:48:29.450Z,24.17
2019-04-14T21:51:18.206Z,23.07
2019-04-14T21:54:07.003Z,19.37
2019-04-14T21:57:14.819Z,21.30
2019-04-14T22:06:36.680Z,21.53
2019-04-14T22:12:53.871Z,23.10
2019-04-14T22:15:42.652Z,26.10
2019-04-14T22:18:31.457Z,24.60
2019-04-14T22:21:39.270Z,28.17
2019-04-14T22:24:28.070Z,38.30
2019-04-14T22:27:16.858Z,28.33
2019-04-14T22:30:26.565Z,19.27
2019-04-14T22:33:08.019Z,21.53
2019-04-14T22:35:56.818Z,28.17
2019-04-14T22:38:45.602Z,26.83
2019-04-14T22:41:34.408Z,21.87
2019-04-14T22:44:23.196Z,25.70
2019-04-14T22:47:11.990Z,26.50
2019-04-14T22:50:00.770Z,25.43
2019-04-14T22:52:49.577Z,25.33
2019-04-14T22:55:38.367Z,28.07
2019-04-14T22:58:27.173Z,31.53
2019-04-14T23:01:34.982Z,23.03
2019-04-14T23:07:42.165Z,24.43
2019-04-14T23:10:49.996Z,21.27
2019-04-14T23:13:57.823Z,23.00
2019-04-14T23:17:05.639Z,31.10
2019-04-14T23:20:13.468Z,31.40
2019-04-14T23:23:21.282Z,22.70
2019-04-14T23:26:10.243Z,30.23
2019-04-14T23:28:59.033Z,26.53
2019-04-14T23:31:47.841Z,24.43
2019-04-14T23:34:36.646Z,25.60
2019-04-14T23:37:25.429Z,25.70
2019-04-14T23:40:14.403Z,26.27
2019-04-14T23:43:03.185Z,28.70
2019-04-14T23:45:51.984Z,23.40
2019-04-14T23:48:40.770Z,30.67
2019-04-14T23:51:29.566Z,23.73
2019-04-14T23:54:37.372Z,28.27
2019-04-14T23:57:07.003Z,28.47
2019-04-14T23:59:55.799Z,27.20
